Terminal Aerodrome Forecast
Issued by NWS Wilmington, NC

Current Version | Previous Version | Graphics & Text | Print | Product List | Glossary Off
Versions: 1 2 3 4 5 6 7 8 9 10 11 12 13 14 15 16 17

000
FTUS42 KILM 272333
TAFLBT
TAF
KLBT 272333Z 2800/2824 VRB04KT P6SM VCSH SCT030 BKN060 BKN100
      TEMPO 2800/2801 6SM TSRA BKN040CB BKN150
     FM280800 19002KT 2SM BR SCT100
     FM281300 20004KT P6SM VCSH SCT040 SCT200
     FM281900 15008KT P6SM VCTS SCT050CB=

USA.gov is the U.S. government's official web portal to all federal, state and local government web resources and services.